createdAt,value
2023-05-24T00:00:03.005Z,101937.09
2023-05-24T00:05:01.528Z,101933.53
2023-05-24T00:09:58.323Z,101927.38
2023-05-24T00:14:55.298Z,101917.75
2023-05-24T00:19:52.624Z,101922.88
2023-05-24T00:24:50.801Z,101920.22
2023-05-24T00:29:47.923Z,101918.34
2023-05-24T00:34:44.431Z,101909.28
2023-05-24T00:39:41.654Z,101911.59
2023-05-24T00:44:55.601Z,101906.09
2023-05-24T00:49:58.404Z,101899.91
2023-05-24T00:54:54.928Z,101893.97
2023-05-24T01:05:09.356Z,101885.28
2023-05-24T01:10:15.379Z,101894.13
2023-05-24T01:15:33.319Z,101886.13
2023-05-24T01:20:33.411Z,101889.00
2023-05-24T01:25:49.085Z,101878.22
2023-05-24T01:30:47.396Z,101888.91
2023-05-24T01:35:46.766Z,101879.28
2023-05-24T01:40:45.360Z,101874.03
2023-05-24T01:45:45.484Z,101874.78
2023-05-24T01:50:54.673Z,101888.91
2023-05-24T01:56:03.020Z,101877.22
2023-05-24T02:01:01.595Z,101881.56
2023-05-24T02:06:14.454Z,101885.88
2023-05-24T02:11:24.161Z,101883.03
2023-05-24T02:16:47.209Z,101880.56
2023-05-24T02:21:43.714Z,101883.91
2023-05-24T02:26:41.440Z,101882.84
2023-05-24T02:31:38.316Z,101881.06
2023-05-24T02:36:36.938Z,101874.75
2023-05-24T02:41:37.663Z,101878.19
2023-05-24T02:46:34.758Z,101881.91
2023-05-24T02:51:32.920Z,101879.16
2023-05-24T02:56:29.438Z,101876.50
2023-05-24T03:01:27.137Z,101874.75
2023-05-24T03:06:23.678Z,101880.00
2023-05-24T03:11:26.279Z,101871.31
2023-05-24T03:16:22.806Z,101872.25
2023-05-24T03:21:22.941Z,101869.41
2023-05-24T03:26:20.912Z,101858.75
2023-05-24T03:31:18.347Z,101859.03
2023-05-24T03:36:18.231Z,101867.03
2023-05-24T03:41:24.034Z,101863.41
2023-05-24T03:57:36.446Z,101876.66
2023-05-24T04:02:32.938Z,101884.41
2023-05-24T04:07:33.879Z,101878.00
2023-05-24T04:12:31.314Z,101868.19
2023-05-24T04:17:29.513Z,101876.19
2023-05-24T04:22:26.073Z,101881.34
2023-05-24T04:27:22.451Z,101872.50
2023-05-24T04:32:19.756Z,101876.78
2023-05-24T04:37:17.289Z,101870.69
2023-05-24T04:42:13.965Z,101888.50
2023-05-24T04:47:10.667Z,101893.94
2023-05-24T04:52:07.390Z,101903.47
2023-05-24T04:57:03.848Z,101904.34
2023-05-24T05:02:00.471Z,101911.31
2023-05-24T05:06:57.982Z,101906.81
2023-05-24T05:11:54.375Z,101905.88
2023-05-24T05:16:50.776Z,101917.22
2023-05-24T05:21:48.268Z,101918.97
2023-05-24T05:26:44.596Z,101919.91
2023-05-24T05:31:40.919Z,101916.28
2023-05-24T05:36:40.721Z,101912.56
2023-05-24T05:41:38.417Z,101915.06
2023-05-24T05:46:34.876Z,101920.03
2023-05-24T05:51:31.864Z,101931.06
2023-05-24T05:56:28.582Z,101940.50
2023-05-24T06:01:25.003Z,101945.00
2023-05-24T06:06:21.345Z,101947.53
2023-05-24T06:11:23.768Z,101952.72
2023-05-24T06:16:21.384Z,101961.13
2023-05-24T06:21:17.760Z,101953.88
2023-05-24T06:26:14.141Z,101956.28
2023-05-24T06:31:10.622Z,101967.44
2023-05-24T06:36:07.091Z,101973.00
2023-05-24T06:41:04.476Z,101977.47
2023-05-24T06:46:00.783Z,101982.28
2023-05-24T06:50:57.095Z,101992.47
2023-05-24T06:55:55.550Z,101998.78
2023-05-24T07:00:53.351Z,102002.97
2023-05-24T07:05:53.027Z,102006.59
2023-05-24T07:10:49.414Z,102006.81
2023-05-24T07:15:46.725Z,102015.84
2023-05-24T07:20:45.724Z,102010.41
2023-05-24T07:25:42.311Z,102009.94
2023-05-24T07:30:39.283Z,102014.06
2023-05-24T07:35:35.669Z,102019.22
2023-05-24T07:40:32.091Z,102013.84
2023-05-24T07:45:28.456Z,102022.84
2023-05-24T07:50:25.126Z,102024.00
2023-05-24T07:55:21.658Z,102032.38
2023-05-24T08:00:18.297Z,102043.56
2023-05-24T08:05:15.076Z,102035.91
2023-05-24T08:10:14.990Z,102041.44
2023-05-24T08:15:11.814Z,102049.47
2023-05-24T08:20:15.436Z,102049.97
2023-05-24T08:25:11.931Z,102044.91
2023-05-24T08:30:08.500Z,102053.63
2023-05-24T08:35:19.362Z,102058.97
2023-05-24T08:40:18.175Z,102050.25
2023-05-24T08:45:17.049Z,102060.50
2023-05-24T08:50:13.411Z,102066.59
2023-05-24T08:55:09.759Z,102064.91
2023-05-24T09:00:07.204Z,102074.16
2023-05-24T09:05:03.573Z,102072.03
2023-05-24T09:10:06.935Z,102073.09
2023-05-24T09:15:04.049Z,102079.03
2023-05-24T09:20:00.886Z,102069.47
2023-05-24T09:24:57.899Z,102071.66
2023-05-24T09:29:55.229Z,102073.09
2023-05-24T09:34:52.629Z,102076.63
2023-05-24T09:39:51.119Z,102087.03
2023-05-24T09:45:17.423Z,102083.38
2023-05-24T09:50:19.755Z,102093.91
2023-05-24T09:55:16.743Z,102085.63
2023-05-24T10:00:21.703Z,102094.44
2023-05-24T10:05:18.177Z,102100.75
2023-05-24T10:10:15.761Z,102103.03
2023-05-24T10:15:12.283Z,102098.72
2023-05-24T10:20:09.904Z,102103.97
2023-05-24T10:25:06.423Z,102096.78
2023-05-24T10:30:11.416Z,102097.75
2023-05-24T10:35:09.430Z,102095.59
2023-05-24T10:40:36.434Z,102103.84
2023-05-24T10:45:35.529Z,102103.00
2023-05-24T10:50:32.053Z,102104.69
2023-05-24T10:55:28.426Z,102101.94
2023-05-24T11:00:35.352Z,102105.25
2023-05-24T11:05:36.461Z,102103.25
2023-05-24T11:10:32.872Z,102099.31
2023-05-24T11:15:29.719Z,102100.47
2023-05-24T11:20:26.768Z,102103.06
2023-05-24T11:25:23.161Z,102100.69
2023-05-24T11:30:19.463Z,102094.00
2023-05-24T11:35:16.085Z,102096.00
2023-05-24T11:40:13.131Z,102103.16
2023-05-24T11:45:10.830Z,102109.44
2023-05-24T11:50:07.947Z,102109.97
2023-05-24T11:55:06.946Z,102106.28
2023-05-24T12:00:04.651Z,102114.97
2023-05-24T12:05:09.744Z,102115.97
2023-05-24T12:10:14.922Z,102119.13
2023-05-24T12:15:19.693Z,102122.63
2023-05-24T12:20:20.877Z,102119.78
2023-05-24T12:25:28.891Z,102126.41
2023-05-24T12:30:40.464Z,102130.19
2023-05-24T12:35:45.605Z,102124.81
2023-05-24T12:41:12.352Z,102134.69
2023-05-24T12:46:33.030Z,102140.44
2023-05-24T12:51:34.966Z,102133.34
2023-05-24T12:56:37.936Z,102140.06
2023-05-24T13:01:50.765Z,102143.38
2023-05-24T13:06:51.879Z,102137.16
2023-05-24T13:11:52.548Z,102145.22
2023-05-24T13:16:55.818Z,102139.72
2023-05-24T13:21:55.367Z,102132.91
2023-05-24T13:26:54.467Z,102140.03
2023-05-24T13:31:51.584Z,102139.19
2023-05-24T13:36:54.035Z,102137.63
2023-05-24T13:41:50.739Z,102137.28
2023-05-24T13:46:49.634Z,102133.97
2023-05-24T13:51:49.592Z,102122.72
2023-05-24T13:56:59.119Z,102116.47
2023-05-24T14:02:05.549Z,102126.03
2023-05-24T14:07:07.938Z,102122.47
2023-05-24T14:12:11.353Z,102120.66
2023-05-24T14:17:11.385Z,102119.59
2023-05-24T14:22:11.222Z,102118.72
2023-05-24T14:27:13.435Z,102128.13
2023-05-24T14:32:11.456Z,102128.84
2023-05-24T14:37:20.772Z,102139.47
2023-05-24T14:42:18.462Z,102133.59
2023-05-24T14:47:14.908Z,102138.88
2023-05-24T14:52:11.422Z,102137.41
2023-05-24T14:57:08.206Z,102148.50
2023-05-24T15:02:07.085Z,102146.56
2023-05-24T15:07:03.813Z,102150.94
2023-05-24T15:33:04.115Z,102146.63
2023-05-24T15:38:06.361Z,102147.16
2023-05-24T15:43:06.983Z,102145.06
2023-05-24T15:53:36.433Z,102142.28
2023-05-24T16:45:22.372Z,102146.34
2023-05-24T16:50:21.764Z,102154.28
2023-05-24T20:15:05.126Z,102327.44
2023-05-24T20:25:18.044Z,102336.47
2023-05-24T20:42:23.578Z,102346.47
2023-05-24T20:47:20.698Z,102345.78
2023-05-24T21:15:31.916Z,102376.91
2023-05-24T21:20:35.462Z,102375.19
2023-05-24T21:25:32.343Z,102375.28
2023-05-24T21:30:32.171Z,102385.97
2023-05-24T21:35:40.838Z,102383.22
2023-05-24T21:40:39.257Z,102397.59
2023-05-24T21:45:39.067Z,102390.47
2023-05-24T21:55:54.002Z,102394.75
2023-05-24T22:00:51.480Z,102396.56
2023-05-24T22:06:00.265Z,102395.69
2023-05-24T22:10:59.223Z,102400.09
2023-05-24T22:21:48.028Z,102420.19
2023-05-24T22:26:47.430Z,102419.56
2023-05-24T22:37:17.706Z,102429.13
2023-05-24T22:42:30.090Z,102424.09
2023-05-24T22:47:27.186Z,102426.94
2023-05-24T22:52:39.321Z,102428.91
2023-05-24T22:57:43.609Z,102428.97
2023-05-24T23:02:46.112Z,102430.09
2023-05-24T23:07:42.782Z,102425.34
2023-05-24T23:18:00.736Z,102418.13
2023-05-24T23:23:12.486Z,102419.50
2023-05-24T23:28:11.138Z,102422.56
2023-05-24T23:33:10.018Z,102419.28
2023-05-24T23:38:07.766Z,102408.84
2023-05-24T23:43:04.517Z,102411.69
2023-05-24T23:48:01.553Z,102421.66
